Details for United Airlines at KLAX




Go Back


Latest METAR
Local Time

KLAX 261253Z VRB04KT 10SM BKN016 14/11 A3000 RMK AO2 SLP156 T01440111

26/05/2018, 06:45:08

Description
Results
United Airlines Logo
Number of Pilots based at KLAX
0 Pilots Based here
Number of United Airlines Flights Departed from KLAX
1 Flights Departed
Number of United Airlines Flights Arrived at KLAX
1 Flights Arrived
Number of United Airlines Schedules Departing from KLAX
210 Schedules
Number of United Airlines Schedules Arriving at KLAX
222 Schedules
Number of United Airlines Schedules Departing from KLAX availible today
113 Schedules Today
Number of United Airlines Schedules Arriving at KLAX availible today
114 Schedules Today
Average Landing Rate at KLAX
-226 fpm
United Airlines Average Landing Rate at KLAX
-125 fpm
Total Fuel Purchased at KLAX by United Airlines
2,664.86 kgs / 5,874.95 lbs

Pilots Based at KLAX


Pilot ID
Pilot Name
Pilot Rank
No. of Flights
No. of Flying Hours
There are no pilots assigned to this hub!   Will you be the first?
Content